Time;durP1;ratioP1;P1;durP2;ratioP2;P2;SDS_P1;SDS_P2;PMS_P1;PMS_P2;Temp;Humidity;BMP_temperature;BMP_pressure;BME280_temperature;BME280_humidity;BME280_pressure;Samples;Min_cycle;Max_cycle;Signal;HPM_P1;HPM_P2
2023/08/15 00:01:21;;;;;;;12.45;7.00;;;21.30;99.90;;;;;;5094772;28;20024;-82
2023/08/15 00:03:46;;;;;;;12.15;7.38;;;21.40;99.90;;;;;;5094522;28;20047;-82
2023/08/15 00:06:13;;;;;;;13.07;6.93;;;21.30;99.90;;;;;;5096544;28;20032;-82
2023/08/15 00:08:39;;;;;;;12.75;8.05;;;21.30;99.90;;;;;;5096127;28;20023;-82
2023/08/15 00:11:05;;;;;;;12.57;7.00;;;21.20;99.90;;;;;;5094973;28;20020;-83
2023/08/15 00:13:31;;;;;;;11.88;6.80;;;21.20;99.90;;;;;;5095013;28;20024;-82
2023/08/15 00:15:57;;;;;;;13.65;7.10;;;21.20;99.90;;;;;;5095135;28;20092;-83
2023/08/15 00:18:23;;;;;;;10.18;7.20;;;21.20;99.90;;;;;;5094855;28;20437;-81
2023/08/15 00:20:49;;;;;;;14.65;7.10;;;21.20;99.90;;;;;;5096375;28;20350;-82
2023/08/15 00:23:15;;;;;;;16.67;7.28;;;21.20;99.90;;;;;;5111975;28;20043;-82
2023/08/15 00:25:42;;;;;;;11.18;7.45;;;21.10;99.90;;;;;;5111419;28;20038;-81
2023/08/15 00:28:08;;;;;;;12.10;6.90;;;21.20;99.90;;;;;;5095878;28;20208;-82
2023/08/15 00:30:34;;;;;;;13.27;6.65;;;21.10;99.90;;;;;;5095645;28;20459;-83
2023/08/15 00:33:01;;;;;;;11.65;6.95;;;21.10;99.90;;;;;;5095557;28;20035;-81
2023/08/15 00:35:26;;;;;;;12.55;7.57;;;21.10;99.90;;;;;;5094738;28;20050;-82
2023/08/15 00:37:52;;;;;;;15.88;7.60;;;21.00;99.90;;;;;;5094418;28;20446;-82
2023/08/15 00:40:18;;;;;;;23.65;7.60;;;20.90;99.90;;;;;;5096035;28;20453;-81
2023/08/15 00:42:44;;;;;;;11.52;7.65;;;20.80;99.90;;;;;;5094484;28;20020;-82
2023/08/15 00:45:10;;;;;;;18.80;8.98;;;20.70;99.90;;;;;;5095098;28;20471;-83
2023/08/15 00:47:37;;;;;;;16.85;8.95;;;20.60;99.90;;;;;;5094303;28;20020;-82
2023/08/15 00:50:06;;;;;;;17.77;8.85;;;20.70;99.90;;;;;;5094495;28;20449;-82
2023/08/15 00:52:33;;;;;;;15.18;8.80;;;20.60;99.90;;;;;;5095278;28;20077;-81
2023/08/15 00:54:59;;;;;;;12.05;8.07;;;20.50;99.90;;;;;;5095550;28;20031;-83
2023/08/15 00:57:25;;;;;;;18.30;8.20;;;20.50;99.90;;;;;;5094643;28;20035;-83
2023/08/15 00:59:51;;;;;;;19.65;8.18;;;20.50;99.90;;;;;;5094511;28;20036;-82
2023/08/15 01:02:17;;;;;;;20.52;7.95;;;20.50;99.90;;;;;;5093792;28;20077;-80
2023/08/15 01:04:43;;;;;;;14.40;7.75;;;20.50;99.90;;;;;;5093490;28;20079;-81
2023/08/15 01:07:10;;;;;;;14.70;7.65;;;20.50;99.90;;;;;;5095372;28;20106;-83
2023/08/15 01:09:37;;;;;;;13.85;7.15;;;20.50;99.90;;;;;;5093633;28;20020;-82
2023/08/15 01:12:12;;;;;;;16.95;7.95;;;20.40;99.90;;;;;;5094964;28;20499;-84
2023/08/15 01:14:48;;;;;;;12.50;7.72;;;20.50;99.90;;;;;;5093091;28;20035;-82
2023/08/15 01:17:19;;;;;;;15.57;8.57;;;20.40;99.90;;;;;;5092927;28;20023;-81
2023/08/15 01:19:48;;;;;;;19.40;8.10;;;20.40;99.90;;;;;;5094154;28;20020;-82
2023/08/15 01:22:22;;;;;;;13.32;7.97;;;20.40;99.90;;;;;;5111310;28;20043;-82
2023/08/15 01:24:48;;;;;;;14.43;7.38;;;20.40;99.90;;;;;;5111288;28;20050;-82
2023/08/15 01:27:14;;;;;;;11.73;7.32;;;20.40;99.90;;;;;;5093978;28;20043;-83
2023/08/15 01:29:40;;;;;;;13.38;8.52;;;20.30;99.90;;;;;;5094190;28;20059;-82
2023/08/15 01:32:28;;;;;;;13.40;8.15;;;20.30;99.90;;;;;;5111098;28;20024;-83
2023/08/15 01:35:23;;;;;;;13.18;7.28;;;20.30;99.90;;;;;;5095845;28;20040;-82
2023/08/15 01:37:57;;;;;;;10.95;7.18;;;20.30;99.90;;;;;;5068336;28;20040;-84
2023/08/15 01:40:24;;;;;;;16.88;8.05;;;20.30;99.90;;;;;;5072724;28;20468;-82
2023/08/15 01:42:55;;;;;;;13.55;8.23;;;20.30;99.90;;;;;;5055583;28;20363;-83
2023/08/15 01:45:23;;;;;;;12.33;7.47;;;20.30;99.90;;;;;;5053329;28;20044;-83
2023/08/15 01:47:51;;;;;;;17.50;7.35;;;20.30;99.90;;;;;;5054901;28;20025;-82
2023/08/15 01:50:17;;;;;;;13.70;7.43;;;20.30;99.90;;;;;;5071924;28;20020;-82
2023/08/15 01:52:42;;;;;;;21.20;7.93;;;20.20;99.90;;;;;;5055045;28;20078;-82
2023/08/15 01:55:09;;;;;;;14.65;7.60;;;20.20;99.90;;;;;;5068819;28;20085;-81
2023/08/15 01:57:34;;;;;;;16.73;7.35;;;20.20;99.90;;;;;;5048949;28;20031;-82
2023/08/15 02:00:00;;;;;;;15.25;8.00;;;20.30;99.90;;;;;;5071750;28;20028;-81
2023/08/15 02:02:26;;;;;;;13.70;8.48;;;20.30;99.90;;;;;;5055233;28;20041;-81
2023/08/15 02:04:52;;;;;;;15.40;8.80;;;20.30;99.90;;;;;;5047482;28;20486;-80
2023/08/15 02:07:18;;;;;;;19.88;9.88;;;20.30;99.90;;;;;;5056835;28;20470;-81
2023/08/15 02:09:43;;;;;;;16.50;9.07;;;20.30;99.90;;;;;;5071998;28;20025;-83
2023/08/15 08:59:46;;;;;;;16.25;4.28;;;;;;;;;;5162887;27;20452;-82
2023/08/15 09:02:19;;;;;;;10.20;3.60;;;;;;;;;;5134123;27;20120;-83
2023/08/15 09:04:46;;;;;;;13.52;3.95;;;;;;;;;;5134139;27;20031;-83
2023/08/15 09:07:16;;;;;;;4.35;3.22;;;;;;;;;;5133822;27;20102;-83
2023/08/15 09:09:43;;;;;;;7.55;3.17;;;;;;;;;;5134078;27;20023;-83
2023/08/15 09:12:09;;;;;;;18.73;3.35;;;;;;;;;;5112801;28;20023;-83
2023/08/15 09:14:42;;;;;;;6.15;2.95;;;;;;;;;;5131258;27;20364;-82
2023/08/15 09:17:11;;;;;;;13.02;3.45;;;;;;;;;;5133750;27;20031;-83
2023/08/15 09:19:41;;;;;;;12.05;3.63;;;;;;;;;;5133905;27;20034;-80
2023/08/15 09:22:08;;;;;;;16.95;3.80;;;;;;;;;;5152721;27;20019;-81
2023/08/15 09:24:34;;;;;;;8.23;3.38;;;;;;;;;;5133436;27;20049;-82
2023/08/15 09:27:06;;;;;;;10.20;2.80;;;;;;;;;;5152433;27;20023;-83
2023/08/15 09:29:34;;;;;;;6.80;3.33;;;;;;;;;;5133684;27;20046;-79
2023/08/15 09:32:01;;;;;;;16.80;4.68;;;;;;;;;;5152324;27;20023;-83
2023/08/15 09:34:27;;;;;;;8.18;2.83;;;;;;;;;;5134057;27;20023;-81
2023/08/15 09:36:53;;;;;;;9.95;3.60;;;;;;;;;;5151753;27;20019;-80
2023/08/15 09:39:20;;;;;;;5.85;3.30;;;;;;;;;;5151848;27;20332;-82
2023/08/15 09:41:48;;;;;;;8.35;3.72;;;;;;;;;;5151805;27;20405;-81
2023/08/15 09:44:29;;;;;;;8.88;3.92;;;;;;;;;;5149693;27;20034;-81
2023/08/15 09:46:56;;;;;;;6.88;3.60;;;;;;;;;;5140905;27;20011;-83
2023/08/15 09:49:22;;;;;;;9.85;4.03;;;;;;;;;;5132900;27;20027;-81
2023/08/15 09:51:48;;;;;;;8.27;3.45;;;;;;;;;;5149515;27;20015;-81
2023/08/15 09:54:17;;;;;;;7.47;3.45;;;;;;;;;;5151502;27;20071;-81
2023/08/15 09:56:43;;;;;;;9.88;3.30;;;;;;;;;;5133048;27;20072;-80
2023/08/15 09:59:09;;;;;;;8.98;3.22;;;;;;;;;;5132619;27;20059;-80
2023/08/15 10:01:40;;;;;;;7.95;2.85;;;;;;;;;;5151978;27;20044;-79
2023/08/15 10:04:12;;;;;;;;;;;;;;;;;;5132963;27;20015;-81
2023/08/15 10:06:39;;;;;;;4.57;2.60;;;;;;;;;;5130979;27;19956;-84
2023/08/15 10:09:06;;;;;;;9.25;2.60;;;;;;;;;;5130237;27;20097;-82
2023/08/15 10:11:34;;;;;;;8.52;2.20;;;;;;;;;;5118954;27;20024;-81
2023/08/15 10:14:01;;;;;;;8.27;2.25;;;;;;;;;;5137447;27;20084;-83
2023/08/15 10:16:27;;;;;;;6.97;2.47;;;;;;;;;;5119149;27;20019;-80
2023/08/15 10:18:54;;;;;;;7.40;2.30;;;;;;;;;;5118725;27;20457;-79
2023/08/15 10:21:20;;;;;;;11.80;3.20;;;;;;;;;;5118901;27;20118;-80
2023/08/15 10:25:42;;;;;;;16.60;2.75;;;;;;;;;;5128637;27;20318;-79
2023/08/15 10:28:12;;;;;;;12.10;3.10;;;;;;;;;;5093407;28;20028;-81
2023/08/15 10:30:41;;;;;;;7.35;3.65;;;;;;;;;;5091792;28;20024;-79
2023/08/15 10:33:14;;;;;;;17.15;2.85;;;;;;;;;;5108973;28;20361;-78
2023/08/15 10:37:30;;;;;;;26.08;3.40;;;;;;;;;;5105094;27;20668;-80
2023/08/15 10:40:12;;;;;;;24.20;3.45;;;;;;;;;;5090926;28;20089;-79
2023/08/15 10:42:57;;;;;;;27.80;4.03;;;;;;;;;;5089717;28;20020;-80
2023/08/15 10:45:24;;;;;;;22.30;3.55;;;;;;;;;;5090653;28;20477;-79
2023/08/15 10:47:51;;;;;;;20.52;3.83;;;;;;;;;;5088132;28;20392;-79
2023/08/15 10:50:17;;;;;;;16.00;3.25;;;;;;;;;;5090027;28;20021;-79
2023/08/15 10:52:44;;;;;;;20.25;3.97;;;;;;;;;;5084198;28;20370;-78
2023/08/15 10:55:10;;;;;;;20.02;3.42;;;;;;;;;;5089341;28;20048;-79
2023/08/15 10:57:36;;;;;;;12.88;3.45;;;;;;;;;;5088376;28;20040;-79
2023/08/15 11:01:18;;;;;;;7.78;2.78;;;;;;;;;;5153681;27;20287;-79
2023/08/15 11:05:47;;;;;;;8.65;2.58;;;;;;;;;;5162914;27;20326;-81
2023/08/15 11:08:15;;;;;;;5.65;2.63;;;;;;;;;;5133458;27;20027;-79
2023/08/15 11:13:18;;;;;;;6.43;2.90;;;;;;;;;;5111606;27;20432;-83
2023/08/15 11:16:41;;;;;;;10.05;3.20;;;;;;;;;;5070665;28;20387;-81
2023/08/15 11:19:07;;;;;;;12.95;3.67;;;;;;;;;;5070711;28;20463;-80
2023/08/15 11:21:34;;;;;;;18.33;3.30;;;;;;;;;;5055972;28;20017;-81
2023/08/15 11:24:01;;;;;;;13.82;3.42;;;;;;;;;;5060780;28;20418;-77
2023/08/15 11:26:28;;;;;;;11.32;3.33;;;;;;;;;;5051517;28;20021;-79
2023/08/15 11:28:54;;;;;;;14.00;3.95;;;;;;;;;;5067062;28;20078;-80
2023/08/15 11:33:02;;;;;;;12.30;2.72;;;;;;;;;;5123747;27;20457;-83
2023/08/15 11:35:29;;;;;;;6.72;2.83;;;;;;;;;;5092469;28;20038;-82
2023/08/15 11:37:55;;;;;;;11.13;3.30;;;;;;;;;;5072492;28;20028;-81
2023/08/15 11:40:52;;;;;;;8.10;2.95;;;;;;;;;;5130089;27;20322;-81
2023/08/15 11:43:58;;;;;;;11.90;3.13;;;;;;;;;;5129030;27;20285;-80
2023/08/15 11:46:27;;;;;;;13.55;2.92;;;;;;;;;;5091593;28;20039;-81
2023/08/15 11:48:53;;;;;;;19.90;3.50;;;;;;;;;;5110026;28;20016;-80
2023/08/15 11:51:23;;;;;;;13.65;3.35;;;;;;;;;;5110122;28;20088;-82
2023/08/15 11:53:52;;;;;;;11.27;3.15;;;;;;;;;;5109551;28;20102;-82
2023/08/15 11:56:19;;;;;;;18.00;3.53;;;;;;;;;;5092655;28;20023;-79
2023/08/15 11:58:45;;;;;;;20.08;3.67;;;;;;;;;;5085029;28;20020;-82
2023/08/15 12:01:11;;;;;;;11.00;3.28;;;;;;;;;;5077736;28;20024;-80
2023/08/15 12:03:38;;;;;;;12.32;3.15;;;;;;;;;;5093005;28;20024;-83
2023/08/15 12:06:09;;;;;;;11.73;2.78;;;;;;;;;;5111427;28;20020;-81
2023/08/15 12:08:35;;;;;;;4.93;2.90;;;;;;;;;;5093110;28;20022;-80
2023/08/15 12:11:05;;;;;;;6.78;3.13;;;;;;;;;;5093008;28;20019;-82
2023/08/15 12:15:44;;;;;;;6.05;2.90;;;;;;;;;;5070493;28;20383;-80
2023/08/15 12:18:10;;;;;;;4.63;2.75;;;;;;;;;;5069801;28;20029;-81
2023/08/15 12:20:36;;;;;;;13.15;3.92;;;;;;;;;;5069885;28;20017;-80
2023/08/15 12:23:03;;;;;;;7.47;3.10;;;;;;;;;;5070693;28;20095;-82
2023/08/15 12:25:29;;;;;;;6.13;3.00;;;;;;;;;;5069610;28;20455;-81
2023/08/15 12:27:55;;;;;;;7.18;2.90;;;;;;;;;;5071071;28;20036;-80
2023/08/15 12:30:21;;;;;;;8.50;3.28;;;;;;;;;;5069235;28;20028;-80
2023/08/15 12:32:48;;;;;;;12.82;4.07;;;;;;;;;;5069496;28;20028;-81
2023/08/15 12:35:14;;;;;;;10.90;3.17;;;;;;;;;;5060594;28;20116;-81
2023/08/15 12:39:35;;;;;;;10.55;3.05;;;;;;;;;;5070978;28;20783;-81
2023/08/15 12:42:02;;;;;;;5.30;2.95;;;;;;;;;;5069993;28;20029;-79
2023/08/15 12:44:29;;;;;;;12.93;3.75;;;;;;;;;;5068480;28;20433;-78
2023/08/15 12:46:55;;;;;;;18.48;5.38;;;;;;;;;;5059758;28;20118;-78
2023/08/15 12:49:21;;;;;;;18.88;5.28;;;;;;;;;;5069388;28;20021;-79
2023/08/15 12:51:48;;;;;;;10.32;3.25;;;;;;;;;;5070573;28;20043;-80
2023/08/15 12:54:16;;;;;;;11.45;3.40;;;;;;;;;;5069466;28;20056;-82
2023/08/15 12:56:43;;;;;;;6.10;3.53;;;;;;;;;;5070261;28;20009;-81
2023/08/15 12:59:09;;;;;;;56.17;8.30;;;;;;;;;;5069825;28;20413;-82
2023/08/15 13:01:35;;;;;;;9.27;3.60;;;;;;;;;;5069695;28;20421;-79
2023/08/15 13:04:02;;;;;;;34.97;9.10;;;;;;;;;;5068213;28;20027;-81
2023/08/15 13:06:28;;;;;;;11.82;3.78;;;;;;;;;;5068756;28;20046;-80
2023/08/15 13:08:54;;;;;;;6.18;3.13;;;;;;;;;;5070338;28;20024;-82
2023/08/15 13:11:20;;;;;;;12.25;3.70;;;;;;;;;;5070164;28;20047;-82
2023/08/15 13:13:46;;;;;;;16.42;4.28;;;;;;;;;;5070233;28;20013;-80
2023/08/15 13:16:15;;;;;;;6.53;3.05;;;;;;;;;;5067981;28;20017;-81
2023/08/15 13:18:41;;;;;;;8.32;3.83;;;;;;;;;;5068627;28;20031;-80
2023/08/15 13:21:07;;;;;;;6.93;3.75;;;;;;;;;;5070216;28;20029;-80
2023/08/15 13:23:34;;;;;;;4.25;2.95;;;;;;;;;;5067907;28;20053;-79
2023/08/15 13:26:42;;;;;;;5.85;3.25;;;;;;;;;;5069415;28;20469;-78
2023/08/15 13:29:08;;;;;;;6.15;3.60;;;;;;;;;;5056039;28;20029;-78
2023/08/15 13:31:35;;;;;;;8.00;3.85;;;;;;;;;;5055021;28;20025;-80
2023/08/15 13:34:40;;;;;;;8.32;3.47;;;;;;;;;;5159978;27;20117;-80
2023/08/15 13:37:06;;;;;;;7.70;3.33;;;;;;;;;;5148113;27;20064;-84
2023/08/15 13:39:33;;;;;;;8.75;3.05;;;;;;;;;;5127977;27;20015;-81
2023/08/15 13:41:59;;;;;;;10.00;3.28;;;;;;;;;;5150569;27;20639;-79
2023/08/15 13:44:25;;;;;;;6.45;3.65;;;;;;;;;;5134297;27;20047;-81
2023/08/15 13:46:51;;;;;;;7.38;4.60;;;;;;;;;;5133859;27;20015;-79
2023/08/15 13:49:17;;;;;;;9.05;4.05;;;;;;;;;;5114897;28;20023;-80
2023/08/15 13:51:43;;;;;;;17.52;3.67;;;;;;;;;;5113478;28;20091;-80
2023/08/15 13:54:09;;;;;;;10.13;4.10;;;;;;;;;;5112631;28;20031;-78
2023/08/15 13:56:36;;;;;;;7.80;3.67;;;;;;;;;;5131510;27;20072;-80
2023/08/15 13:59:02;;;;;;;6.57;3.65;;;;;;;;;;5138848;27;20046;-79
2023/08/15 14:01:28;;;;;;;5.72;3.50;;;;;;;;;;5146940;27;20099;-81
2023/08/15 14:03:54;;;;;;;9.93;3.63;;;;;;;;;;5131366;27;20026;-80
2023/08/15 14:06:20;;;;;;;12.45;4.07;;;;;;;;;;5112545;28;20023;-80
2023/08/15 14:08:46;;;;;;;7.32;4.10;;;;;;;;;;5113235;28;20019;-80
2023/08/15 14:11:12;;;;;;;7.22;3.35;;;;;;;;;;5112492;28;20364;-80
2023/08/15 14:13:38;;;;;;;6.13;3.25;;;;;;;;;;5111611;28;20032;-79
2023/08/15 14:16:05;;;;;;;4.07;2.80;;;;;;;;;;5131159;27;20501;-83
2023/08/15 14:18:32;;;;;;;5.15;3.70;;;;;;;;;;5112942;28;20449;-81
2023/08/15 14:20:58;;;;;;;6.82;3.25;;;;;;;;;;5130673;27;20015;-81
2023/08/15 14:23:24;;;;;;;8.02;3.78;;;;;;;;;;5130977;27;20361;-82
2023/08/15 14:25:51;;;;;;;7.60;3.55;;;;;;;;;;5112841;28;20522;-80
2023/08/15 14:28:18;;;;;;;7.70;3.30;;;;;;;;;;5130798;27;20445;-81
2023/08/15 14:30:45;;;;;;;7.53;3.95;;;;;;;;;;5126638;27;20023;-80
2023/08/15 14:33:11;;;;;;;8.57;3.67;;;;;;;;;;5139142;27;20054;-80
2023/08/15 14:35:38;;;;;;;8.27;3.75;;;;;;;;;;5111733;28;20038;-80
2023/08/15 14:38:04;;;;;;;8.50;3.80;;;;;;;;;;5111860;28;20064;-81
2023/08/15 14:40:31;;;;;;;8.10;4.25;;;;;;;;;;5146563;27;20011;-81
2023/08/15 14:42:57;;;;;;;8.38;3.65;;;;;;;;;;5132198;27;20118;-82
2023/08/15 14:45:23;;;;;;;6.30;3.72;;;;;;;;;;5120542;27;20098;-81
2023/08/15 14:47:49;;;;;;;6.05;3.72;;;;;;;;;;5098352;28;20020;-81
2023/08/15 14:50:15;;;;;;;7.85;3.28;;;;;;;;;;5097383;28;20030;-80
2023/08/15 14:52:42;;;;;;;9.68;3.63;;;;;;;;;;5098063;28;20020;-81
2023/08/15 14:55:11;;;;;;;10.52;3.60;;;;;;;;;;5096885;28;20479;-81
2023/08/15 14:57:38;;;;;;;6.28;3.83;;;;;;;;;;5114704;27;20023;-81
2023/08/15 15:00:07;;;;;;;9.15;3.70;;;;;;;;;;5114043;28;20461;-81
2023/08/15 15:02:34;;;;;;;6.65;3.40;;;;;;;;;;5096259;28;20637;-83
2023/08/15 15:05:00;;;;;;;7.68;3.80;;;;;;;;;;5097826;28;20039;-81
2023/08/15 15:07:26;;;;;;;7.25;3.67;;;;;;;;;;5115848;28;20024;-80
2023/08/15 15:09:52;;;;;;;13.30;4.03;;;;;;;;;;5097160;28;20019;-79
2023/08/15 15:12:18;;;;;;;7.53;3.90;;;;;;;;;;5125987;27;20359;-82
2023/08/15 15:14:45;;;;;;;7.15;4.32;;;;;;;;;;5129192;27;20027;-80
2023/08/15 15:17:11;;;;;;;9.15;4.07;;;;;;;;;;5115415;28;20418;-81
2023/08/15 15:19:37;;;;;;;9.57;3.92;;;;;;;;;;5097685;28;20453;-81
2023/08/15 15:24:18;;;;;;;6.43;4.00;;;;;;;;;;5069747;28;20379;-80
2023/08/15 15:26:44;;;;;;;9.75;4.20;;;;;;;;;;5069144;28;20031;-81
2023/08/15 15:29:10;;;;;;;6.90;3.97;;;;;;;;;;5068915;28;20021;-80
2023/08/15 15:31:36;;;;;;;6.72;4.80;;;;;;;;;;5070228;28;20035;-80
2023/08/15 15:34:02;;;;;;;8.13;4.15;;;;;;;;;;5070382;28;20051;-81
2023/08/15 15:36:28;;;;;;;8.75;4.35;;;;;;;;;;5068756;28;20085;-81
2023/08/15 15:38:55;;;;;;;8.88;4.55;;;;;;;;;;5069768;28;20359;-83
2023/08/15 15:41:21;;;;;;;7.32;4.30;;;;;;;;;;5069707;28;20426;-82
2023/08/15 15:43:47;;;;;;;15.45;6.93;;;;;;;;;;5069848;28;20029;-83
2023/08/15 15:46:13;;;;;;;7.55;4.65;;;;;;;;;;5066659;28;20078;-80
2023/08/15 15:48:40;;;;;;;8.88;4.00;;;;;;;;;;5068497;28;20031;-80
2023/08/15 15:51:06;;;;;;;9.02;3.97;;;;;;;;;;5069407;28;20039;-80
2023/08/15 15:53:32;;;;;;;7.82;4.28;;;;;;;;;;5068095;28;20039;-81
2023/08/15 15:55:58;;;;;;;6.45;3.88;;;;;;;;;;5069646;28;20035;-82
2023/08/15 15:58:25;;;;;;;8.00;4.40;;;;;;;;;;5068493;28;20370;-81
2023/08/15 16:00:51;;;;;;;8.43;4.32;;;;;;;;;;5067322;28;20025;-82
2023/08/15 16:03:17;;;;;;;11.38;5.13;;;;;;;;;;5066489;28;20029;-82
2023/08/15 16:05:43;;;;;;;8.98;4.10;;;;;;;;;;5066579;28;20458;-81
2023/08/15 16:08:10;;;;;;;8.48;4.75;;;;;;;;;;5068993;28;20021;-82
2023/08/15 16:10:36;;;;;;;9.90;4.45;;;;;;;;;;5069910;28;20016;-84
2023/08/15 16:13:02;;;;;;;7.25;4.30;;;;;;;;;;5069146;28;20041;-83
2023/08/15 16:15:28;;;;;;;9.82;4.15;;;;;;;;;;5069362;28;20017;-83
2023/08/15 16:17:54;;;;;;;12.85;4.63;;;;;;;;;;5085125;28;20017;-83
2023/08/15 16:20:20;;;;;;;7.95;5.07;;;;;;;;;;5084433;28;20464;-80
2023/08/15 16:22:46;;;;;;;9.23;4.28;;;;;;;;;;5084672;28;20072;-82
2023/08/15 16:25:13;;;;;;;13.60;4.60;;;;;;;;;;5077146;28;20055;-82
2023/08/15 16:27:39;;;;;;;8.13;4.80;;;;;;;;;;5069545;28;20021;-82
2023/08/15 16:30:06;;;;;;;11.45;4.32;;;;;;;;;;5069666;28;20021;-84
2023/08/15 16:32:32;;;;;;;8.23;4.10;;;;;;;;;;5068465;28;20028;-80
2023/08/15 16:34:58;;;;;;;6.50;4.65;;;;;;;;;;5058576;28;20025;-82
2023/08/15 16:37:24;;;;;;;11.27;4.43;;;;;;;;;;5054311;28;20078;-80
2023/08/15 16:39:51;;;;;;;9.07;4.35;;;;;;;;;;5056262;28;20057;-83
2023/08/15 16:42:17;;;;;;;10.48;4.20;;;;;;;;;;5055142;28;20422;-82
2023/08/15 16:44:43;;;;;;;7.40;4.55;;;;;;;;;;5056592;28;20027;-82
2023/08/15 16:47:09;;;;;;;10.90;4.20;;;;;;;;;;5056065;28;20027;-82
2023/08/15 16:49:35;;;;;;;9.52;4.75;;;;;;;;;;5055947;28;20044;-81
2023/08/15 16:52:01;;;;;;;7.85;4.53;;;;;;;;;;5056229;28;20021;-82
2023/08/15 16:54:27;;;;;;;12.15;5.38;;;;;;;;;;5054614;28;20036;-82
2023/08/15 16:56:54;;;;;;;8.68;4.88;;;;;;;;;;5054749;28;20032;-81
2023/08/15 16:59:20;;;;;;;7.40;4.63;;;;;;;;;;5055833;28;20017;-82
2023/08/15 17:01:46;;;;;;;10.50;5.53;;;;;;;;;;5054403;28;20021;-82
2023/08/15 17:04:12;;;;;;;10.20;5.03;;;;;;;;;;5055811;28;20033;-81
2023/08/15 17:06:38;;;;;;;8.07;4.60;;;;;;;;;;5054864;28;20082;-80
2023/08/15 17:09:05;;;;;;;10.63;5.25;;;;;;;;;;5055652;28;20027;-81
2023/08/15 17:11:31;;;;;;;8.10;4.45;;;;;;;;;;5055825;28;20035;-81
2023/08/15 17:13:57;;;;;;;12.52;4.97;;;;;;;;;;5056220;28;20043;-81
2023/08/15 17:16:23;;;;;;;17.98;4.65;;;;;;;;;;5055122;28;20035;-81
2023/08/15 17:18:49;;;;;;;13.00;4.15;;;;;;;;;;5055706;28;20032;-81
2023/08/15 17:21:16;;;;;;;10.70;4.55;;;;;;;;;;5054483;28;20048;-80
2023/08/15 17:23:42;;;;;;;9.93;4.55;;;;;;;;;;5054964;28;20044;-83
2023/08/15 17:26:08;;;;;;;12.00;4.53;;;;;;;;;;5054365;28;20466;-83
2023/08/15 17:28:34;;;;;;;9.48;4.55;;;;;;;;;;5054270;28;20020;-82
2023/08/15 17:31:00;;;;;;;13.38;5.03;;;;;;;;;;5070634;28;20411;-83
2023/08/15 17:33:26;;;;;;;10.07;4.70;;;;;;;;;;5070480;28;20045;-82
2023/08/15 17:35:53;;;;;;;8.05;5.22;;;;;;;;;;5070116;28;20020;-83
2023/08/15 17:38:19;;;;;;;9.73;5.07;;;;;;;;;;5067594;28;20079;-84
2023/08/15 17:40:45;;;;;;;9.88;4.75;;;;;;;;;;5053805;28;20082;-83
2023/08/15 17:43:11;;;;;;;10.40;5.18;;;;;;;;;;5055177;28;20071;-84
2023/08/15 17:45:39;;;;;;;8.98;4.95;;;;;;;;;;5052273;28;20017;-80
2023/08/15 17:48:05;;;;;;;10.27;5.50;;;;;;;;;;5054277;28;20028;-81
2023/08/15 17:50:31;;;;;;;7.15;4.82;;;;;;;;;;5053754;28;20088;-82
2023/08/15 17:52:57;;;;;;;12.57;5.07;;;;;;;;;;5053734;28;20029;-82
2023/08/15 17:55:24;;;;;;;13.43;5.15;;;;;;;;;;5070116;28;20070;-81
2023/08/15 17:57:51;;;;;;;9.68;5.60;;;;;;;;;;5070042;28;20025;-82
2023/08/15 18:00:17;;;;;;;14.63;6.25;;;;;;;;;;5054654;28;20409;-82
2023/08/15 18:02:44;;;;;;;15.20;7.78;;;;;;;;;;5052797;28;20036;-80
2023/08/15 18:05:12;;;;;;;14.30;7.13;;;;;;;;;;5054864;28;20451;-81
2023/08/15 18:07:38;;;;;;;15.18;7.03;;;;;;;;;;5053596;28;20435;-84
2023/08/15 18:10:04;;;;;;;14.40;6.55;;;;;;;;;;5054710;28;20017;-83
2023/08/15 18:12:30;;;;;;;13.80;5.78;;;;;;;;;;5053108;28;20033;-82
2023/08/15 18:14:56;;;;;;;20.67;7.32;;;;;;;;;;5053359;28;20479;-82
2023/08/15 18:17:23;;;;;;;12.43;6.97;;;;;;;;;;5054668;28;20032;-82
2023/08/15 18:19:50;;;;;;;13.73;6.38;;;;;;;;;;5051949;28;20111;-83
2023/08/15 18:22:16;;;;;;;14.85;6.65;;;;;;;;;;5054135;28;20044;-81
2023/08/15 18:24:42;;;;;;;12.75;6.55;;;;;;;;;;5054405;28;20378;-81
2023/08/15 18:27:09;;;;;;;11.18;6.03;;;;;;;;;;5052807;28;20111;-84
2023/08/15 18:29:35;;;;;;;11.10;5.93;;;;;;;;;;5054571;28;20013;-82
2023/08/15 18:32:01;;;;;;;11.13;6.35;;;;;;;;;;5052440;28;20027;-81
2023/08/15 18:34:28;;;;;;;13.35;6.80;;;;;;;;;;5052996;28;20398;-81
2023/08/15 18:36:54;;;;;;;15.02;6.70;;;;;;;;;;5052659;28;20491;-81
2023/08/15 18:39:21;;;;;;;9.15;5.78;;;;;;;;;;5051350;28;20035;-80
2023/08/15 18:41:48;;;;;;;10.65;6.13;;;;;;;;;;5051970;28;20021;-82
2023/08/15 18:44:15;;;;;;;9.90;5.90;;;;;;;;;;5049599;28;20033;-82
2023/08/15 18:46:41;;;;;;;12.23;6.13;;;;;;;;;;5051285;28;20110;-81
2023/08/15 18:49:09;;;;;;;12.77;7.05;;;;;;;;;;5053062;28;20513;-81
2023/08/15 18:51:35;;;;;;;16.73;7.80;;;;;;;;;;5051102;28;20025;-81
2023/08/15 18:54:01;;;;;;;14.45;8.85;;;;;;;;;;5052422;28;20017;-82
2023/08/15 18:56:27;;;;;;;17.55;9.35;;;;;;;;;;5052805;28;20029;-81
2023/08/15 18:58:53;;;;;;;22.92;8.75;;;;;;;;;;5051037;28;20017;-82
2023/08/15 19:01:19;;;;;;;19.85;9.10;;;;;;;;;;5052018;28;20025;-80
2023/08/15 19:03:45;;;;;;;17.08;8.30;;;;;;;;;;5052661;28;20454;-81
2023/08/15 19:06:11;;;;;;;19.00;8.07;;;;;;;;;;5051687;28;20462;-80
2023/08/15 19:08:38;;;;;;;20.85;9.30;;;;;;;;;;5051794;28;20017;-80
2023/08/15 19:11:04;;;;;;;21.67;9.63;;;;;;;;;;5051069;28;20021;-80
2023/08/15 19:13:30;;;;;;;15.82;8.65;;;;;;;;;;5050704;28;20094;-82
2023/08/15 19:15:56;;;;;;;22.92;7.72;;;;;;;;;;5050549;28;20017;-80
2023/08/15 19:18:22;;;;;;;18.00;9.07;;;;;;;;;;5050979;28;20076;-81
2023/08/15 19:20:48;;;;;;;17.38;8.52;;;23.80;80.80;;;;;;5052674;28;20099;-81
2023/08/15 19:23:14;;;;;;;13.30;8.27;;;23.60;81.50;;;;;;5066912;28;20116;-82
2023/08/15 19:25:40;;;;;;;13.25;7.45;;;23.60;82.10;;;;;;5052782;28;20427;-81
2023/08/15 19:28:06;;;;;;;17.05;8.50;;;23.60;83.20;;;;;;5051883;28;20371;-81
2023/08/15 19:30:32;;;;;;;11.50;7.50;;;23.50;84.00;;;;;;5050335;28;20033;-81
2023/08/15 19:32:58;;;;;;;15.07;7.72;;;23.50;84.50;;;;;;5051146;28;20078;-81
2023/08/15 19:35:24;;;;;;;12.57;8.05;;;23.50;85.50;;;;;;5051589;28;20075;-84
2023/08/15 19:37:50;;;;;;;16.17;7.38;;;23.40;86.00;;;;;;5052864;28;20475;-81
2023/08/15 19:40:16;;;;;;;15.45;7.18;;;23.40;86.80;;;;;;5049565;28;20047;-82
2023/08/15 19:42:45;;;;;;;17.17;7.72;;;23.40;87.00;;;;;;5032778;28;20034;-83
2023/08/15 19:45:12;;;;;;;15.80;6.20;;;23.40;88.60;;;;;;5051510;28;20167;-81
2023/08/15 19:47:39;;;;;;;13.50;7.05;;;23.40;89.80;;;;;;5068262;28;20348;-79
2023/08/15 19:50:06;;;;;;;15.77;7.28;;;23.50;89.90;;;;;;5067907;28;20025;-80
2023/08/15 19:52:32;;;;;;;11.70;6.20;;;23.50;90.10;;;;;;5052621;28;20021;-80
2023/08/15 19:54:59;;;;;;;12.00;6.75;;;23.50;90.80;;;;;;5052840;28;20036;-81
2023/08/15 19:57:26;;;;;;;12.60;6.20;;;23.40;91.00;;;;;;5067560;28;20021;-81
2023/08/15 19:59:52;;;;;;;11.98;6.90;;;23.50;91.50;;;;;;5052733;28;20024;-81
2023/08/15 20:02:21;;;;;;;16.58;7.13;;;23.50;91.50;;;;;;5052284;28;20025;-81
2023/08/15 20:04:47;;;;;;;16.23;7.80;;;23.60;91.90;;;;;;5051927;28;20056;-80
2023/08/15 20:07:13;;;;;;;16.55;9.73;;;23.60;92.40;;;;;;5052037;28;20045;-79
2023/08/15 20:09:39;;;;;;;18.83;10.25;;;23.40;93.60;;;;;;5054000;28;20033;-80
2023/08/15 20:12:05;;;;;;;17.33;10.90;;;23.30;95.10;;;;;;5056139;28;20021;-82
2023/08/15 20:14:31;;;;;;;21.10;10.60;;;23.20;97.10;;;;;;5055866;28;20363;-80
2023/08/15 20:16:56;;;;;;;17.92;10.38;;;23.20;99.60;;;;;;5054980;28;20025;-80
2023/08/15 20:19:22;;;;;;;17.25;10.90;;;23.10;99.90;;;;;;5054394;28;20021;-82
2023/08/15 20:21:49;;;;;;;19.70;10.00;;;23.20;99.90;;;;;;5054663;28;20021;-81
2023/08/15 20:24:15;;;;;;;18.73;10.38;;;23.10;99.90;;;;;;5053344;28;20048;-80
2023/08/15 20:26:41;;;;;;;17.92;10.25;;;23.10;99.90;;;;;;5053491;28;20021;-80
2023/08/15 20:29:06;;;;;;;22.95;10.30;;;23.20;99.90;;;;;;5037328;28;20432;-82
2023/08/15 20:31:32;;;;;;;19.17;10.70;;;23.10;99.90;;;;;;5055070;28;20025;-79
2023/08/15 20:34:00;;;;;;;17.98;10.90;;;23.20;99.90;;;;;;5055919;28;20087;-81
2023/08/15 20:36:26;;;;;;;18.05;10.13;;;23.10;99.90;;;;;;5055717;28;20031;-80
2023/08/15 20:38:53;;;;;;;18.60;10.73;;;23.10;99.90;;;;;;5055816;28;20021;-81
2023/08/15 20:41:20;;;;;;;20.00;9.70;;;23.10;99.90;;;;;;5053612;28;20021;-82
2023/08/15 20:43:46;;;;;;;16.05;8.57;;;23.00;99.90;;;;;;5054046;28;20119;-84
2023/08/15 20:46:11;;;;;;;14.60;6.05;;;23.00;99.90;;;;;;5055870;28;20514;-80
2023/08/15 20:48:37;;;;;;;8.75;5.20;;;22.90;99.90;;;;;;5055581;28;20051;-81
2023/08/15 20:51:03;;;;;;;7.03;4.90;;;22.90;99.90;;;;;;5055031;28;20028;-81
2023/08/15 20:53:29;;;;;;;7.38;4.35;;;22.90;99.90;;;;;;5053856;28;20166;-82
2023/08/15 20:55:54;;;;;;;7.03;4.70;;;22.90;99.90;;;;;;5053747;28;20025;-82
2023/08/15 20:58:20;;;;;;;9.10;4.43;;;22.90;99.90;;;;;;5070155;28;20028;-81
2023/08/15 21:00:46;;;;;;;11.90;5.20;;;22.80;99.90;;;;;;5053925;28;20498;-82
2023/08/15 21:03:12;;;;;;;13.73;5.45;;;22.80;99.90;;;;;;5052897;28;20043;-82
2023/08/15 21:05:38;;;;;;;8.10;5.35;;;22.80;99.90;;;;;;5054542;28;20033;-79